createdAt,value
2022-11-01T00:01:42.338Z,15.13
2022-11-01T00:04:09.834Z,13.52
2022-11-01T00:06:37.437Z,19.67
2022-11-01T00:09:05.342Z,18.27
2022-11-01T00:11:32.940Z,21.05
2022-11-01T00:14:00.368Z,16.48
2022-11-01T00:16:28.136Z,8.98
2022-11-01T00:18:55.620Z,14.70
2022-11-01T00:21:23.158Z,29.75
2022-11-01T00:23:50.720Z,24.20
2022-11-01T00:26:20.623Z,21.08
2022-11-01T00:28:48.851Z,26.15
2022-11-01T00:31:32.094Z,24.48
2022-11-01T00:34:05.885Z,22.42
2022-11-01T00:36:34.271Z,17.40
2022-11-01T00:39:10.145Z,29.88
2022-11-01T00:41:38.309Z,21.58
2022-11-01T00:44:05.725Z,27.88
2022-11-01T00:46:35.075Z,18.60
2022-11-01T00:49:02.572Z,25.50
2022-11-01T00:51:29.953Z,27.23
2022-11-01T00:53:57.354Z,27.52
2022-11-01T00:56:24.666Z,18.95
2022-11-01T00:58:52.101Z,29.67
2022-11-01T01:01:19.615Z,14.00
2022-11-01T01:03:47.165Z,18.45
2022-11-01T01:06:14.598Z,33.20
2022-11-01T01:08:42.130Z,23.00
2022-11-01T01:11:09.543Z,18.15
2022-11-01T01:13:36.991Z,24.73
2022-11-01T01:16:10.101Z,24.00
2022-11-01T01:18:37.552Z,25.50
2022-11-01T01:21:06.434Z,16.90
2022-11-01T01:23:34.398Z,29.50
2022-11-01T01:26:09.296Z,29.63
2022-11-01T01:28:41.891Z,25.50
2022-11-01T01:31:13.677Z,20.98
2022-11-01T01:33:41.469Z,15.13
2022-11-01T01:36:08.865Z,30.70
2022-11-01T01:38:36.316Z,27.95
2022-11-01T01:41:22.298Z,28.30
2022-11-01T01:43:50.359Z,19.38
2022-11-01T01:46:17.973Z,12.95
2022-11-01T01:48:48.830Z,32.67
2022-11-01T01:51:19.915Z,30.58
2022-11-01T01:53:54.092Z,23.67
2022-11-01T01:56:26.907Z,19.33
2022-11-01T01:59:14.586Z,20.38
2022-11-01T02:01:43.522Z,26.83
2022-11-01T02:04:29.358Z,16.42
2022-11-01T02:06:58.370Z,25.73
2022-11-01T02:09:28.186Z,24.83
2022-11-01T02:11:59.810Z,28.90
2022-11-01T02:14:27.418Z,16.67
2022-11-01T02:17:14.726Z,26.48
2022-11-01T02:19:56.965Z,28.65
2022-11-01T02:22:39.411Z,26.83
2022-11-01T02:25:47.332Z,26.02
2022-11-01T02:28:23.542Z,28.95
2022-11-01T02:31:17.150Z,31.95
2022-11-01T02:34:25.327Z,29.13
2022-11-01T02:37:01.686Z,28.55
2022-11-01T02:39:38.323Z,21.75
2022-11-01T02:42:14.416Z,25.90
2022-11-01T02:44:53.520Z,27.77
2022-11-01T02:47:21.341Z,24.95
2022-11-01T02:49:54.385Z,21.77
2022-11-01T02:52:25.723Z,22.20
2022-11-01T02:54:57.756Z,24.77
2022-11-01T02:57:37.368Z,32.88
2022-11-01T03:00:24.449Z,25.25
2022-11-01T03:03:20.992Z,25.85
2022-11-01T03:05:54.527Z,23.77
2022-11-01T03:08:32.211Z,27.08
2022-11-01T03:11:18.392Z,21.48
2022-11-01T03:14:14.909Z,20.60
2022-11-01T03:17:03.831Z,17.65
2022-11-01T03:20:00.402Z,23.08
2022-11-01T03:22:54.035Z,25.65
2022-11-01T03:25:39.859Z,23.75
2022-11-01T03:28:15.388Z,21.85
2022-11-01T03:30:48.321Z,19.42
2022-11-01T03:33:17.092Z,21.60
2022-11-01T03:35:48.118Z,22.80
2022-11-01T03:38:19.567Z,23.33
2022-11-01T03:40:52.424Z,21.35
2022-11-01T03:43:22.694Z,25.13
2022-11-01T03:45:50.750Z,21.00
2022-11-01T03:48:18.240Z,18.55
2022-11-01T03:50:51.174Z,23.63
2022-11-01T03:53:19.024Z,25.53
2022-11-01T03:55:46.410Z,32.00
2022-11-01T03:58:14.039Z,23.02
2022-11-01T04:00:44.519Z,39.00
2022-11-01T04:03:12.757Z,31.50
2022-11-01T04:05:41.711Z,16.63
2022-11-01T04:08:11.323Z,26.10
2022-11-01T04:10:38.980Z,21.40
2022-11-01T04:13:06.394Z,19.23
2022-11-01T04:15:56.900Z,15.95
2022-11-01T04:18:43.694Z,20.33
2022-11-01T04:21:14.819Z,4.63
2022-11-01T04:23:43.899Z,6.43
2022-11-01T04:26:13.689Z,4.78
2022-11-01T04:28:41.231Z,4.07
2022-11-01T04:31:08.600Z,5.32
2022-11-01T04:33:35.985Z,7.15
2022-11-01T04:36:07.201Z,5.60
2022-11-01T04:38:34.712Z,11.10
2022-11-01T04:41:02.113Z,10.60
2022-11-01T04:43:29.447Z,25.10
2022-11-01T04:45:57.598Z,18.30
2022-11-01T04:48:26.460Z,7.05
2022-11-01T04:50:54.020Z,8.60
2022-11-01T04:53:21.398Z,27.48
2022-11-01T04:55:48.755Z,4.57
2022-11-01T04:58:16.027Z,16.85
2022-11-01T05:00:44.236Z,7.40
2022-11-01T05:03:12.313Z,4.15
2022-11-01T05:05:39.848Z,8.35
2022-11-01T05:08:09.745Z,4.88
2022-11-01T05:10:39.653Z,9.18
2022-11-01T05:13:07.402Z,4.72
2022-11-01T05:15:40.177Z,4.20
2022-11-01T05:18:15.697Z,3.58
2022-11-01T05:20:43.203Z,3.83
2022-11-01T05:23:10.634Z,4.65
2022-11-01T05:25:38.480Z,3.88
2022-11-01T05:28:08.800Z,4.00
2022-11-01T05:30:37.278Z,3.95
2022-11-01T05:33:06.613Z,4.07
2022-11-01T05:35:36.062Z,4.38
2022-11-01T05:38:05.237Z,4.25
2022-11-01T05:40:33.363Z,4.20
2022-11-01T05:43:01.553Z,3.70
2022-11-01T05:45:29.288Z,3.63
2022-11-01T05:48:01.657Z,4.05
2022-11-01T05:50:29.036Z,3.53
2022-11-01T05:52:56.497Z,4.10
2022-11-01T05:55:23.860Z,3.75
2022-11-01T05:57:58.637Z,3.33
2022-11-01T06:00:25.976Z,1.65
2022-11-01T06:02:53.307Z,3.97
2022-11-01T06:05:20.790Z,3.20
2022-11-01T06:07:48.127Z,4.40
2022-11-01T06:10:15.639Z,3.50
2022-11-01T06:12:42.996Z,4.32
2022-11-01T06:15:10.857Z,3.33
2022-11-01T06:17:38.246Z,3.35
2022-11-01T06:20:06.567Z,3.65
2022-11-01T06:22:36.417Z,3.35
2022-11-01T06:25:05.556Z,3.97
2022-11-01T06:27:33.541Z,4.50
2022-11-01T06:30:01.020Z,4.22
2022-11-01T06:32:28.583Z,4.85
2022-11-01T06:34:55.961Z,3.42
2022-11-01T06:37:23.460Z,4.53
2022-11-01T06:39:51.000Z,3.90
2022-11-01T06:42:18.568Z,4.28
2022-11-01T06:44:46.031Z,5.10
2022-11-01T06:47:13.777Z,4.10
2022-11-01T06:49:41.466Z,4.40
2022-11-01T06:52:09.166Z,3.72
2022-11-01T06:54:36.540Z,4.85
2022-11-01T06:57:04.091Z,4.75
2022-11-01T06:59:31.584Z,4.65
2022-11-01T07:01:59.404Z,5.15
2022-11-01T07:04:29.202Z,4.68
2022-11-01T07:06:56.700Z,5.28
2022-11-01T07:09:24.256Z,5.70
2022-11-01T07:11:51.634Z,5.07
2022-11-01T07:14:19.022Z,4.63
2022-11-01T07:16:46.395Z,4.97
2022-11-01T07:19:13.769Z,4.90
2022-11-01T07:21:41.196Z,5.28
2022-11-01T07:24:08.616Z,6.00
2022-11-01T07:26:36.024Z,6.53
2022-11-01T07:29:03.482Z,5.43
2022-11-01T07:31:33.509Z,5.45
2022-11-01T07:34:00.971Z,6.25
2022-11-01T07:36:28.386Z,5.38
2022-11-01T07:38:55.702Z,6.38
2022-11-01T07:41:23.091Z,5.50
2022-11-01T07:43:50.495Z,6.20
2022-11-01T07:46:17.890Z,5.60
2022-11-01T07:48:45.344Z,6.38
2022-11-01T07:51:12.731Z,5.47
2022-11-01T07:53:40.163Z,6.03
2022-11-01T07:56:08.246Z,6.43
2022-11-01T07:58:35.715Z,6.65
2022-11-01T08:01:03.229Z,6.00
2022-11-01T08:03:31.175Z,6.03
2022-11-01T08:05:58.517Z,5.57
2022-11-01T08:08:25.947Z,7.28
2022-11-01T08:10:53.379Z,6.35
2022-11-01T08:13:23.141Z,7.13
2022-11-01T08:15:52.466Z,6.97
2022-11-01T08:18:22.684Z,8.93
2022-11-01T08:20:50.795Z,6.10
2022-11-01T08:23:18.370Z,6.78
2022-11-01T08:25:46.020Z,7.20
2022-11-01T08:28:16.594Z,7.22
2022-11-01T08:30:45.471Z,7.78
2022-11-01T08:33:12.948Z,5.90
2022-11-01T08:35:41.877Z,7.38
2022-11-01T08:38:11.177Z,6.45
2022-11-01T08:40:38.514Z,6.85
2022-11-01T08:43:06.524Z,7.72
2022-11-01T08:45:34.145Z,6.53
2022-11-01T08:48:03.769Z,7.15
2022-11-01T08:50:34.097Z,6.32
2022-11-01T08:53:09.141Z,6.32
2022-11-01T08:55:38.113Z,6.22
2022-11-01T08:58:06.906Z,6.60
2022-11-01T09:00:35.496Z,5.93
2022-11-01T09:03:03.040Z,6.88
2022-11-01T09:05:31.704Z,6.68
2022-11-01T09:08:00.960Z,6.18
2022-11-01T09:10:31.187Z,7.20
2022-11-01T09:13:00.828Z,7.32
2022-11-01T09:15:28.673Z,7.18
2022-11-01T09:17:56.166Z,6.60
2022-11-01T09:20:24.404Z,7.65
2022-11-01T09:22:55.043Z,7.00
2022-11-01T09:25:22.511Z,7.22
2022-11-01T09:27:50.032Z,7.03
2022-11-01T09:30:17.636Z,8.40
2022-11-01T09:32:45.208Z,8.18
2022-11-01T09:35:12.867Z,7.95
2022-11-01T09:37:40.385Z,8.48
2022-11-01T09:40:09.978Z,7.95
2022-11-01T09:42:42.299Z,7.78
2022-11-01T09:45:18.731Z,7.55
2022-11-01T09:47:51.362Z,9.07
2022-11-01T09:50:18.817Z,8.63
2022-11-01T09:52:46.528Z,9.35
2022-11-01T09:55:17.441Z,9.60
2022-11-01T09:57:54.338Z,9.70
2022-11-01T10:00:22.658Z,9.13
2022-11-01T10:03:18.097Z,9.88
2022-11-01T10:06:16.568Z,8.30
2022-11-01T10:09:06.130Z,9.35
2022-11-01T10:11:52.714Z,8.90
2022-11-01T10:14:54.882Z,9.15
2022-11-01T10:17:51.720Z,8.77
2022-11-01T10:20:30.638Z,9.88
2022-11-01T10:22:59.885Z,9.18
2022-11-01T10:25:37.481Z,9.57
2022-11-01T10:28:21.236Z,8.52
2022-11-01T10:30:58.777Z,10.18
2022-11-01T10:33:35.410Z,9.95
2022-11-01T10:36:10.603Z,8.88
2022-11-01T10:41:52.597Z,10.63
2022-11-01T10:44:33.942Z,9.80
2022-11-01T10:47:07.347Z,9.50
2022-11-01T10:50:04.275Z,8.90
2022-11-01T10:52:46.808Z,9.65
2022-11-01T10:55:20.074Z,10.15
2022-11-01T10:58:07.117Z,9.98
2022-11-01T11:00:38.365Z,9.52
2022-11-01T11:03:35.399Z,9.73
2022-11-01T11:06:10.526Z,11.50
2022-11-01T11:08:41.604Z,9.35
2022-11-01T11:11:18.083Z,10.35
2022-11-01T11:13:54.093Z,8.45
2022-11-01T11:16:31.902Z,8.63
2022-11-01T11:19:08.472Z,8.27
2022-11-01T11:21:36.176Z,8.88
2022-11-01T11:24:05.408Z,8.60
2022-11-01T11:26:39.320Z,8.85
2022-11-01T11:29:07.030Z,10.23
2022-11-01T11:31:35.283Z,7.97
2022-11-01T11:34:27.553Z,9.65
2022-11-01T11:36:56.031Z,7.70
2022-11-01T11:39:30.733Z,8.20
2022-11-01T11:42:16.935Z,7.97
2022-11-01T11:44:45.981Z,6.22
2022-11-01T11:47:19.423Z,8.05
2022-11-01T11:49:48.299Z,5.32
2022-11-01T11:52:18.853Z,6.40
2022-11-01T11:54:47.112Z,5.70
2022-11-01T11:57:27.490Z,5.30
2022-11-01T11:59:58.944Z,4.47
2022-11-01T12:02:48.275Z,4.68
2022-11-01T12:05:18.848Z,4.43
2022-11-01T12:07:53.255Z,3.88
2022-11-01T12:10:45.807Z,3.97
2022-11-01T12:13:27.601Z,3.63
2022-11-01T12:16:09.442Z,4.40
2022-11-01T12:18:47.375Z,3.38
2022-11-01T12:21:19.182Z,3.80
2022-11-01T12:23:49.711Z,4.82
2022-11-01T12:26:21.206Z,3.80
2022-11-01T12:29:17.455Z,4.95
2022-11-01T12:31:45.907Z,3.17
2022-11-01T12:34:31.466Z,3.70
2022-11-01T12:37:14.479Z,3.30
2022-11-01T12:40:07.749Z,3.17
2022-11-01T12:42:41.752Z,3.15
2022-11-01T12:45:55.455Z,2.95
2022-11-01T12:48:37.378Z,2.10
2022-11-01T12:51:49.048Z,2.10
2022-11-01T12:54:32.328Z,1.42
2022-11-01T12:57:00.153Z,1.73
2022-11-01T12:59:34.648Z,2.22
2022-11-01T13:02:23.551Z,1.65
2022-11-01T13:04:57.664Z,1.40
2022-11-01T13:07:43.856Z,1.45
2022-11-01T13:10:33.516Z,1.90
2022-11-01T13:13:19.610Z,1.90
2022-11-01T13:16:13.262Z,1.95
2022-11-01T13:18:44.801Z,1.65
2022-11-01T13:21:32.467Z,1.63
2022-11-01T13:24:15.068Z,1.70
2022-11-01T13:26:55.057Z,1.55
2022-11-01T13:29:52.867Z,1.55
2022-11-01T13:32:51.133Z,1.60
2022-11-01T13:35:34.947Z,1.90
2022-11-01T13:38:29.046Z,1.50
2022-11-01T13:41:08.965Z,1.85
2022-11-01T13:43:44.027Z,1.83
2022-11-01T13:46:25.324Z,1.90
2022-11-01T13:49:11.180Z,1.38
2022-11-01T13:52:07.488Z,1.70
2022-11-01T13:54:47.632Z,2.05
2022-11-01T13:57:18.743Z,2.03
2022-11-01T13:59:54.368Z,2.05
2022-11-01T14:02:28.115Z,1.85
2022-11-01T14:07:24.460Z,1.92
2022-11-01T14:09:55.513Z,1.70
2022-11-01T14:12:46.643Z,1.65
2022-11-01T14:15:21.212Z,1.80
2022-11-01T14:17:57.976Z,1.75
2022-11-01T14:20:28.593Z,2.38
2022-11-01T14:22:57.831Z,2.20
2022-11-01T14:25:30.538Z,2.33
2022-11-01T14:28:17.623Z,1.98
2022-11-01T14:30:47.928Z,2.45
2022-11-01T14:33:20.667Z,2.42
2022-11-01T14:35:55.688Z,2.13
2022-11-01T14:38:46.291Z,2.45
2022-11-01T14:41:15.868Z,2.25
2022-11-01T14:43:53.827Z,2.22
2022-11-01T14:46:24.761Z,1.80
2022-11-01T14:49:05.121Z,1.77
2022-11-01T14:51:37.571Z,1.80
2022-11-01T14:54:21.719Z,1.50
2022-11-01T14:56:55.208Z,1.50
2022-11-01T14:59:34.631Z,1.98
2022-11-01T15:02:05.489Z,1.90
2022-11-01T15:04:40.835Z,1.77
2022-11-01T15:07:30.898Z,2.10
2022-11-01T15:10:19.616Z,1.90
2022-11-01T15:12:54.640Z,2.20
2022-11-01T15:15:25.112Z,1.88
2022-11-01T15:18:07.537Z,1.90
2022-11-01T15:20:41.605Z,1.87
2022-11-01T15:23:15.590Z,2.38
2022-11-01T15:25:44.630Z,2.30
2022-11-01T15:28:22.956Z,2.60
2022-11-01T15:31:01.442Z,1.92
2022-11-01T15:33:33.035Z,2.28
2022-11-01T15:36:05.640Z,2.35
2022-11-01T15:38:49.982Z,2.22
2022-11-01T15:41:36.146Z,2.03
2022-11-01T15:44:06.524Z,2.05
2022-11-01T15:46:38.872Z,2.10
2022-11-01T15:49:14.953Z,2.10
2022-11-01T15:51:49.320Z,2.13
2022-11-01T15:54:47.908Z,1.40
2022-11-01T15:57:36.176Z,1.58
2022-11-01T16:00:18.753Z,2.00
2022-11-01T16:03:00.720Z,2.07
2022-11-01T16:05:34.023Z,2.30
2022-11-01T16:08:02.111Z,2.00
2022-11-01T16:10:30.724Z,2.35
2022-11-01T16:13:01.481Z,1.90
2022-11-01T16:15:34.824Z,2.28
2022-11-01T16:18:16.303Z,2.30
2022-11-01T16:20:47.521Z,1.70
2022-11-01T16:23:29.928Z,2.00
2022-11-01T16:26:07.330Z,1.83
2022-11-01T16:28:40.155Z,2.00
2022-11-01T16:31:31.075Z,1.70
2022-11-01T16:34:01.335Z,1.80
2022-11-01T16:36:31.657Z,2.08
2022-11-01T16:38:59.204Z,1.60
2022-11-01T16:41:37.859Z,1.33
2022-11-01T16:44:16.277Z,1.60
2022-11-01T16:46:44.599Z,1.30
2022-11-01T16:49:21.422Z,1.55
2022-11-01T16:51:49.183Z,1.10
2022-11-01T16:54:18.165Z,1.45
2022-11-01T16:56:55.402Z,1.42
2022-11-01T16:59:38.297Z,1.35
2022-11-01T17:02:17.339Z,1.40
2022-11-01T17:04:48.583Z,1.20
2022-11-01T17:07:20.104Z,1.60
2022-11-01T17:09:48.216Z,1.60
2022-11-01T17:12:15.741Z,1.60
2022-11-01T17:14:43.490Z,1.60
2022-11-01T17:17:24.700Z,1.50
2022-11-01T17:19:59.889Z,1.50
2022-11-01T17:22:35.010Z,1.30
2022-11-01T17:25:06.482Z,1.65
2022-11-01T17:27:34.520Z,1.52
2022-11-01T17:30:02.165Z,1.70
2022-11-01T17:32:30.908Z,1.70
2022-11-01T17:34:58.375Z,1.70
2022-11-01T17:37:27.083Z,2.13
2022-11-01T17:39:54.457Z,1.90
2022-11-01T17:42:22.313Z,1.88
2022-11-01T17:44:50.140Z,2.33
2022-11-01T17:47:17.941Z,2.08
2022-11-01T17:49:45.483Z,1.92
2022-11-01T17:52:19.273Z,1.60
2022-11-01T17:54:52.390Z,1.40
2022-11-01T17:57:23.029Z,1.80
2022-11-01T17:59:51.136Z,1.70
2022-11-01T18:02:20.935Z,1.70
2022-11-01T18:04:48.856Z,1.88
2022-11-01T18:07:17.288Z,1.95
2022-11-01T18:09:45.368Z,2.10
2022-11-01T18:12:22.920Z,1.58
2022-11-01T18:14:56.544Z,1.88
2022-11-01T18:17:46.620Z,1.40
2022-11-01T18:20:25.056Z,1.30
2022-11-01T18:23:03.766Z,1.70
2022-11-01T18:25:52.975Z,1.40
2022-11-01T18:28:26.656Z,1.15
2022-11-01T18:31:01.098Z,1.20
2022-11-01T18:33:38.613Z,1.10
2022-11-01T18:36:21.730Z,1.08
2022-11-01T18:39:26.214Z,1.17
2022-11-01T18:41:53.904Z,1.00
2022-11-01T18:44:21.442Z,1.30
2022-11-01T18:47:10.306Z,1.00
2022-11-01T18:49:37.676Z,1.27
2022-11-01T18:52:11.900Z,1.50
2022-11-01T18:54:56.093Z,1.23
2022-11-01T18:57:24.970Z,1.10
2022-11-01T18:59:53.744Z,1.10
2022-11-01T19:02:23.882Z,1.45
2022-11-01T19:04:53.147Z,1.17
2022-11-01T19:07:22.881Z,1.17
2022-11-01T19:09:56.037Z,1.10
2022-11-01T19:12:46.185Z,1.60
2022-11-01T19:15:16.688Z,1.50
2022-11-01T19:17:45.201Z,1.73
2022-11-01T19:20:31.399Z,1.60
2022-11-01T19:23:01.995Z,1.50
2022-11-01T19:25:33.448Z,1.55
2022-11-01T19:28:27.676Z,1.70
2022-11-01T19:30:57.873Z,1.52
2022-11-01T19:33:34.506Z,1.67
2022-11-01T19:36:05.661Z,1.80
2022-11-01T19:38:33.950Z,1.90
2022-11-01T19:41:01.557Z,1.52
2022-11-01T19:43:29.057Z,2.30
2022-11-01T19:45:58.283Z,1.88
2022-11-01T19:48:32.513Z,2.00
2022-11-01T19:51:00.941Z,1.60
2022-11-01T19:53:29.829Z,1.40
2022-11-01T19:56:10.254Z,1.83
2022-11-01T19:58:45.738Z,1.80
2022-11-01T20:01:25.816Z,1.75
2022-11-01T20:03:58.703Z,1.05
2022-11-01T20:06:32.926Z,1.77
2022-11-01T20:09:13.841Z,2.00
2022-11-01T20:11:41.622Z,1.67
2022-11-01T20:14:09.860Z,2.05
2022-11-01T20:16:37.367Z,2.22
2022-11-01T20:19:04.716Z,2.20
2022-11-01T20:21:32.270Z,1.90
2022-11-01T20:24:00.235Z,2.30
2022-11-01T20:26:27.748Z,2.30
2022-11-01T20:28:55.293Z,2.63
2022-11-01T20:31:22.913Z,2.60
2022-11-01T20:33:51.257Z,2.80
2022-11-01T20:36:18.812Z,3.10
2022-11-01T20:38:46.434Z,3.03
2022-11-01T20:41:13.979Z,3.20
2022-11-01T20:43:41.495Z,3.75
2022-11-01T20:46:08.961Z,4.50
2022-11-01T20:48:36.684Z,3.70
2022-11-01T20:51:04.660Z,4.90
2022-11-01T20:53:32.702Z,3.20
2022-11-01T20:56:00.844Z,3.75
2022-11-01T20:58:28.633Z,3.42
2022-11-01T21:00:56.638Z,3.10
2022-11-01T21:03:27.510Z,3.85
2022-11-01T21:05:54.994Z,3.97
2022-11-01T21:08:27.055Z,4.72
2022-11-01T21:10:57.849Z,4.70
2022-11-01T21:13:47.429Z,3.85
2022-11-01T21:16:22.973Z,4.07
2022-11-01T21:18:54.119Z,4.93
2022-11-01T21:21:21.552Z,4.40
2022-11-01T21:23:48.991Z,3.50
2022-11-01T21:26:32.083Z,4.28
2022-11-01T21:29:05.323Z,4.63
2022-11-01T21:31:34.845Z,3.90
2022-11-01T21:34:11.330Z,3.42
2022-11-01T21:36:48.843Z,4.13
2022-11-01T21:39:21.255Z,4.88
2022-11-01T21:41:57.085Z,4.72
2022-11-01T21:44:45.721Z,4.82
2022-11-01T21:47:33.201Z,4.28
2022-11-01T21:50:00.554Z,4.70
2022-11-01T21:52:28.324Z,4.55
2022-11-01T21:54:55.680Z,4.55
2022-11-01T21:57:23.207Z,4.53
2022-11-01T21:59:52.090Z,4.22
2022-11-01T22:02:19.540Z,4.85
2022-11-01T22:04:47.102Z,4.95
2022-11-01T22:07:14.981Z,4.53
2022-11-01T22:09:42.424Z,4.43
2022-11-01T22:12:10.017Z,3.88
2022-11-01T22:14:37.778Z,4.50
2022-11-01T22:17:05.175Z,5.45
2022-11-01T22:19:32.570Z,4.75
2022-11-01T22:22:00.132Z,5.22
2022-11-01T22:24:28.692Z,4.50
2022-11-01T22:26:56.117Z,4.50
2022-11-01T22:29:23.471Z,5.60
2022-11-01T22:31:50.955Z,6.43
2022-11-01T22:34:18.434Z,4.35
2022-11-01T22:36:45.825Z,4.57
2022-11-01T22:39:28.049Z,4.97
2022-11-01T22:41:55.533Z,5.20
2022-11-01T22:44:30.949Z,5.10
2022-11-01T22:47:03.219Z,6.00
2022-11-01T22:49:53.830Z,5.25
2022-11-01T22:52:41.476Z,5.82
2022-11-01T22:55:11.988Z,5.78
2022-11-01T22:58:21.745Z,4.85
2022-11-01T23:00:50.750Z,6.13
2022-11-01T23:03:24.230Z,5.25
2022-11-01T23:05:54.780Z,5.07
2022-11-01T23:08:30.561Z,5.68
2022-11-01T23:10:59.504Z,5.25
2022-11-01T23:13:51.408Z,5.55
2022-11-01T23:16:38.725Z,5.07
2022-11-01T23:19:13.734Z,3.60
2022-11-01T23:21:41.234Z,3.90
2022-11-01T23:24:08.879Z,3.90
2022-11-01T23:26:36.348Z,3.50
2022-11-01T23:29:03.707Z,3.85
2022-11-01T23:31:31.078Z,3.92
2022-11-01T23:33:58.589Z,5.05
2022-11-01T23:36:30.646Z,3.58
2022-11-01T23:41:36.446Z,3.58
2022-11-01T23:44:18.869Z,3.80
2022-11-01T23:46:46.518Z,3.92
2022-11-01T23:49:25.474Z,4.07
2022-11-01T23:51:53.064Z,2.50
2022-11-01T23:54:26.130Z,4.38
2022-11-01T23:56:55.916Z,3.45
2022-11-01T23:59:23.295Z,3.70
